sensor_id;sensor_type;location;lat;lon;timestamp;P1;durP1;ratioP1;P2;durP2;ratioP2
10719;SDS011;5411;58.386;15.560;2024-01-10T00:01:15;5.97;;;4.43;;
10719;SDS011;5411;58.386;15.560;2024-01-10T00:03:44;10.03;;;5.33;;
10719;SDS011;5411;58.386;15.560;2024-01-10T00:06:12;10.90;;;4.70;;
10719;SDS011;5411;58.386;15.560;2024-01-10T00:08:42;10.43;;;5.60;;
10719;SDS011;5411;58.386;15.560;2024-01-10T00:11:11;8.07;;;5.27;;
10719;SDS011;5411;58.386;15.560;2024-01-10T00:13:39;7.07;;;4.90;;
10719;SDS011;5411;58.386;15.560;2024-01-10T00:16:08;6.50;;;5.17;;
10719;SDS011;5411;58.386;15.560;2024-01-10T00:18:36;7.40;;;5.27;;
10719;SDS011;5411;58.386;15.560;2024-01-10T00:21:06;6.57;;;4.90;;
10719;SDS011;5411;58.386;15.560;2024-01-10T00:23:35;7.53;;;5.23;;
10719;SDS011;5411;58.386;15.560;2024-01-10T00:26:05;6.83;;;5.13;;
10719;SDS011;5411;58.386;15.560;2024-01-10T00:28:34;7.50;;;4.87;;
10719;SDS011;5411;58.386;15.560;2024-01-10T00:31:06;7.13;;;5.33;;
10719;SDS011;5411;58.386;15.560;2024-01-10T00:33:34;8.07;;;4.93;;
10719;SDS011;5411;58.386;15.560;2024-01-10T00:36:03;8.10;;;4.30;;
10719;SDS011;5411;58.386;15.560;2024-01-10T00:38:31;7.73;;;5.20;;
10719;SDS011;5411;58.386;15.560;2024-01-10T00:41:00;7.87;;;5.00;;
10719;SDS011;5411;58.386;15.560;2024-01-10T00:43:31;7.40;;;5.13;;
10719;SDS011;5411;58.386;15.560;2024-01-10T00:45:59;7.43;;;4.93;;
10719;SDS011;5411;58.386;15.560;2024-01-10T00:48:28;6.67;;;4.57;;
10719;SDS011;5411;58.386;15.560;2024-01-10T00:50:56;7.50;;;4.90;;
10719;SDS011;5411;58.386;15.560;2024-01-10T00:53:25;8.73;;;5.30;;
10719;SDS011;5411;58.386;15.560;2024-01-10T00:55:53;8.63;;;5.20;;
10719;SDS011;5411;58.386;15.560;2024-01-10T00:58:21;9.03;;;5.43;;
10719;SDS011;5411;58.386;15.560;2024-01-10T01:00:51;8.40;;;5.13;;
10719;SDS011;5411;58.386;15.560;2024-01-10T01:03:19;6.77;;;5.27;;
10719;SDS011;5411;58.386;15.560;2024-01-10T01:05:48;6.63;;;4.40;;
10719;SDS011;5411;58.386;15.560;2024-01-10T01:08:16;10.50;;;4.90;;
10719;SDS011;5411;58.386;15.560;2024-01-10T01:10:45;8.37;;;5.17;;
10719;SDS011;5411;58.386;15.560;2024-01-10T01:13:16;6.60;;;4.60;;
10719;SDS011;5411;58.386;15.560;2024-01-10T01:15:45;9.17;;;4.97;;
10719;SDS011;5411;58.386;15.560;2024-01-10T01:18:14;7.67;;;5.10;;
10719;SDS011;5411;58.386;15.560;2024-01-10T01:20:43;10.20;;;5.53;;
10719;SDS011;5411;58.386;15.560;2024-01-10T01:23:11;7.53;;;5.43;;
10719;SDS011;5411;58.386;15.560;2024-01-10T01:25:46;8.03;;;4.93;;
10719;SDS011;5411;58.386;15.560;2024-01-10T01:28:14;7.97;;;5.40;;
10719;SDS011;5411;58.386;15.560;2024-01-10T01:30:43;10.47;;;5.60;;
10719;SDS011;5411;58.386;15.560;2024-01-10T01:33:11;7.80;;;4.83;;
10719;SDS011;5411;58.386;15.560;2024-01-10T01:35:40;8.23;;;5.53;;
10719;SDS011;5411;58.386;15.560;2024-01-10T01:38:09;8.17;;;5.53;;
10719;SDS011;5411;58.386;15.560;2024-01-10T01:40:37;7.53;;;5.10;;
10719;SDS011;5411;58.386;15.560;2024-01-10T01:43:17;7.83;;;5.10;;
10719;SDS011;5411;58.386;15.560;2024-01-10T01:45:47;9.83;;;5.67;;
10719;SDS011;5411;58.386;15.560;2024-01-10T01:48:18;8.33;;;5.30;;
10719;SDS011;5411;58.386;15.560;2024-01-10T01:50:50;8.60;;;5.33;;
10719;SDS011;5411;58.386;15.560;2024-01-10T01:53:21;9.23;;;6.10;;
10719;SDS011;5411;58.386;15.560;2024-01-10T01:55:50;7.30;;;5.27;;
10719;SDS011;5411;58.386;15.560;2024-01-10T01:58:18;11.43;;;5.70;;
10719;SDS011;5411;58.386;15.560;2024-01-10T02:00:49;8.30;;;5.13;;
10719;SDS011;5411;58.386;15.560;2024-01-10T02:03:19;9.80;;;5.53;;
10719;SDS011;5411;58.386;15.560;2024-01-10T02:05:50;9.47;;;5.87;;
10719;SDS011;5411;58.386;15.560;2024-01-10T02:08:20;8.43;;;5.30;;
10719;SDS011;5411;58.386;15.560;2024-01-10T02:10:48;7.83;;;4.63;;
10719;SDS011;5411;58.386;15.560;2024-01-10T02:13:17;8.23;;;5.47;;
10719;SDS011;5411;58.386;15.560;2024-01-10T02:15:46;8.87;;;5.13;;
10719;SDS011;5411;58.386;15.560;2024-01-10T02:18:14;11.87;;;5.93;;
10719;SDS011;5411;58.386;15.560;2024-01-10T02:20:43;9.70;;;5.57;;
10719;SDS011;5411;58.386;15.560;2024-01-10T02:23:13;10.47;;;5.20;;
10719;SDS011;5411;58.386;15.560;2024-01-10T02:25:44;10.90;;;6.00;;
10719;SDS011;5411;58.386;15.560;2024-01-10T02:28:12;8.50;;;5.27;;
10719;SDS011;5411;58.386;15.560;2024-01-10T02:30:41;8.70;;;5.80;;
10719;SDS011;5411;58.386;15.560;2024-01-10T02:33:09;10.37;;;5.77;;
10719;SDS011;5411;58.386;15.560;2024-01-10T02:35:38;9.73;;;5.87;;
10719;SDS011;5411;58.386;15.560;2024-01-10T02:38:06;8.10;;;5.67;;
10719;SDS011;5411;58.386;15.560;2024-01-10T02:40:35;8.83;;;5.80;;
10719;SDS011;5411;58.386;15.560;2024-01-10T02:43:05;9.07;;;4.87;;
10719;SDS011;5411;58.386;15.560;2024-01-10T02:45:34;7.37;;;5.47;;
10719;SDS011;5411;58.386;15.560;2024-01-10T02:48:03;7.97;;;5.27;;
10719;SDS011;5411;58.386;15.560;2024-01-10T02:50:32;9.57;;;5.70;;
10719;SDS011;5411;58.386;15.560;2024-01-10T02:53:00;9.03;;;5.47;;
10719;SDS011;5411;58.386;15.560;2024-01-10T02:55:29;7.87;;;6.00;;
10719;SDS011;5411;58.386;15.560;2024-01-10T02:57:57;11.10;;;6.00;;
10719;SDS011;5411;58.386;15.560;2024-01-10T03:00:28;9.80;;;6.17;;
10719;SDS011;5411;58.386;15.560;2024-01-10T03:03:01;11.10;;;6.37;;
10719;SDS011;5411;58.386;15.560;2024-01-10T03:05:30;9.70;;;6.23;;
10719;SDS011;5411;58.386;15.560;2024-01-10T03:07:58;10.50;;;5.87;;
10719;SDS011;5411;58.386;15.560;2024-01-10T03:10:29;10.67;;;6.07;;
10719;SDS011;5411;58.386;15.560;2024-01-10T03:12:57;10.47;;;5.60;;
10719;SDS011;5411;58.386;15.560;2024-01-10T03:15:25;11.33;;;6.17;;
10719;SDS011;5411;58.386;15.560;2024-01-10T03:17:55;10.17;;;6.13;;
10719;SDS011;5411;58.386;15.560;2024-01-10T03:20:24;10.60;;;6.03;;
10719;SDS011;5411;58.386;15.560;2024-01-10T03:22:52;8.90;;;5.90;;
10719;SDS011;5411;58.386;15.560;2024-01-10T03:25:26;9.00;;;5.60;;
10719;SDS011;5411;58.386;15.560;2024-01-10T03:27:56;10.10;;;6.47;;
10719;SDS011;5411;58.386;15.560;2024-01-10T03:30:24;11.63;;;5.57;;
10719;SDS011;5411;58.386;15.560;2024-01-10T03:32:53;12.57;;;6.30;;
10719;SDS011;5411;58.386;15.560;2024-01-10T03:35:23;10.77;;;5.43;;
10719;SDS011;5411;58.386;15.560;2024-01-10T03:37:51;9.43;;;5.97;;
10719;SDS011;5411;58.386;15.560;2024-01-10T03:40:20;8.23;;;5.40;;
10719;SDS011;5411;58.386;15.560;2024-01-10T03:42:49;8.60;;;5.70;;
10719;SDS011;5411;58.386;15.560;2024-01-10T03:45:17;9.63;;;5.90;;
10719;SDS011;5411;58.386;15.560;2024-01-10T03:47:49;11.80;;;6.60;;
10719;SDS011;5411;58.386;15.560;2024-01-10T03:50:18;7.97;;;5.43;;
10719;SDS011;5411;58.386;15.560;2024-01-10T03:52:48;9.83;;;5.07;;
10719;SDS011;5411;58.386;15.560;2024-01-10T03:55:19;9.47;;;5.70;;
10719;SDS011;5411;58.386;15.560;2024-01-10T03:57:50;9.07;;;6.00;;
10719;SDS011;5411;58.386;15.560;2024-01-10T04:00:19;8.83;;;5.93;;
10719;SDS011;5411;58.386;15.560;2024-01-10T04:02:47;7.33;;;5.13;;
10719;SDS011;5411;58.386;15.560;2024-01-10T04:05:18;8.40;;;5.60;;
10719;SDS011;5411;58.386;15.560;2024-01-10T04:07:49;9.03;;;6.03;;
10719;SDS011;5411;58.386;15.560;2024-01-10T04:10:17;8.10;;;5.60;;
10719;SDS011;5411;58.386;15.560;2024-01-10T04:12:46;10.67;;;5.83;;
10719;SDS011;5411;58.386;15.560;2024-01-10T04:15:15;11.87;;;6.07;;
10719;SDS011;5411;58.386;15.560;2024-01-10T04:17:45;7.93;;;5.60;;
10719;SDS011;5411;58.386;15.560;2024-01-10T04:20:13;7.43;;;5.13;;
10719;SDS011;5411;58.386;15.560;2024-01-10T04:22:42;7.78;;;5.30;;
10719;SDS011;5411;58.386;15.560;2024-01-10T04:25:12;10.33;;;5.80;;
10719;SDS011;5411;58.386;15.560;2024-01-10T04:27:41;8.90;;;5.43;;
10719;SDS011;5411;58.386;15.560;2024-01-10T04:30:10;9.83;;;5.50;;
10719;SDS011;5411;58.386;15.560;2024-01-10T04:32:39;7.60;;;5.90;;
10719;SDS011;5411;58.386;15.560;2024-01-10T04:35:08;7.13;;;5.23;;
10719;SDS011;5411;58.386;15.560;2024-01-10T04:37:36;8.70;;;5.67;;
10719;SDS011;5411;58.386;15.560;2024-01-10T04:40:05;8.90;;;5.97;;
10719;SDS011;5411;58.386;15.560;2024-01-10T04:42:36;12.00;;;5.47;;
10719;SDS011;5411;58.386;15.560;2024-01-10T04:45:05;9.27;;;5.70;;
10719;SDS011;5411;58.386;15.560;2024-01-10T04:47:35;9.57;;;6.57;;
10719;SDS011;5411;58.386;15.560;2024-01-10T04:50:04;9.13;;;5.30;;
10719;SDS011;5411;58.386;15.560;2024-01-10T04:52:38;10.97;;;5.40;;
10719;SDS011;5411;58.386;15.560;2024-01-10T04:55:07;10.43;;;6.27;;
10719;SDS011;5411;58.386;15.560;2024-01-10T04:57:39;7.17;;;5.23;;
10719;SDS011;5411;58.386;15.560;2024-01-10T05:00:12;8.67;;;5.40;;
10719;SDS011;5411;58.386;15.560;2024-01-10T05:02:41;8.50;;;6.00;;
10719;SDS011;5411;58.386;15.560;2024-01-10T05:05:10;8.40;;;5.50;;
10719;SDS011;5411;58.386;15.560;2024-01-10T05:07:39;8.50;;;5.57;;
10719;SDS011;5411;58.386;15.560;2024-01-10T05:10:07;8.70;;;5.50;;
10719;SDS011;5411;58.386;15.560;2024-01-10T05:12:36;7.93;;;5.37;;
10719;SDS011;5411;58.386;15.560;2024-01-10T05:15:07;9.07;;;5.90;;
10719;SDS011;5411;58.386;15.560;2024-01-10T05:17:36;9.73;;;6.50;;
10719;SDS011;5411;58.386;15.560;2024-01-10T05:20:05;11.33;;;5.67;;
10719;SDS011;5411;58.386;15.560;2024-01-10T05:22:34;10.57;;;5.80;;
10719;SDS011;5411;58.386;15.560;2024-01-10T05:25:04;6.90;;;5.27;;
10719;SDS011;5411;58.386;15.560;2024-01-10T05:27:33;8.17;;;5.80;;
10719;SDS011;5411;58.386;15.560;2024-01-10T05:30:01;8.27;;;5.83;;
10719;SDS011;5411;58.386;15.560;2024-01-10T05:32:32;8.07;;;5.87;;
10719;SDS011;5411;58.386;15.560;2024-01-10T05:35:01;12.30;;;6.57;;
10719;SDS011;5411;58.386;15.560;2024-01-10T05:37:29;13.67;;;6.47;;
10719;SDS011;5411;58.386;15.560;2024-01-10T05:39:57;9.63;;;5.97;;
10719;SDS011;5411;58.386;15.560;2024-01-10T05:42:26;8.57;;;5.40;;
10719;SDS011;5411;58.386;15.560;2024-01-10T05:44:54;6.80;;;5.27;;
10719;SDS011;5411;58.386;15.560;2024-01-10T05:47:22;11.20;;;5.67;;
10719;SDS011;5411;58.386;15.560;2024-01-10T05:49:53;8.90;;;6.50;;
10719;SDS011;5411;58.386;15.560;2024-01-10T05:52:22;9.53;;;4.87;;
10719;SDS011;5411;58.386;15.560;2024-01-10T05:54:50;10.57;;;6.13;;
10719;SDS011;5411;58.386;15.560;2024-01-10T05:57:19;10.87;;;6.67;;
10719;SDS011;5411;58.386;15.560;2024-01-10T05:59:49;10.80;;;6.27;;
10719;SDS011;5411;58.386;15.560;2024-01-10T06:02:19;10.80;;;5.53;;
10719;SDS011;5411;58.386;15.560;2024-01-10T06:04:47;8.63;;;7.10;;
10719;SDS011;5411;58.386;15.560;2024-01-10T06:07:17;8.20;;;5.13;;
10719;SDS011;5411;58.386;15.560;2024-01-10T06:09:47;12.33;;;6.73;;
10719;SDS011;5411;58.386;15.560;2024-01-10T06:12:15;10.57;;;5.97;;
10719;SDS011;5411;58.386;15.560;2024-01-10T06:14:44;9.77;;;6.30;;
10719;SDS011;5411;58.386;15.560;2024-01-10T06:17:15;10.37;;;6.23;;
10719;SDS011;5411;58.386;15.560;2024-01-10T06:19:44;10.70;;;5.80;;
10719;SDS011;5411;58.386;15.560;2024-01-10T06:22:12;8.33;;;5.70;;
10719;SDS011;5411;58.386;15.560;2024-01-10T06:24:42;10.57;;;6.70;;
10719;SDS011;5411;58.386;15.560;2024-01-10T06:27:11;12.43;;;6.30;;
10719;SDS011;5411;58.386;15.560;2024-01-10T06:29:40;11.17;;;6.60;;
10719;SDS011;5411;58.386;15.560;2024-01-10T06:32:08;9.40;;;5.67;;
10719;SDS011;5411;58.386;15.560;2024-01-10T06:34:37;11.73;;;7.10;;
10719;SDS011;5411;58.386;15.560;2024-01-10T06:37:05;11.07;;;6.13;;
10719;SDS011;5411;58.386;15.560;2024-01-10T06:39:34;8.10;;;5.50;;
10719;SDS011;5411;58.386;15.560;2024-01-10T06:42:05;10.87;;;5.70;;
10719;SDS011;5411;58.386;15.560;2024-01-10T06:44:35;10.27;;;6.03;;
10719;SDS011;5411;58.386;15.560;2024-01-10T06:47:03;8.70;;;6.03;;
10719;SDS011;5411;58.386;15.560;2024-01-10T06:49:32;10.87;;;6.33;;
10719;SDS011;5411;58.386;15.560;2024-01-10T06:52:00;7.87;;;5.43;;
10719;SDS011;5411;58.386;15.560;2024-01-10T06:54:29;10.47;;;6.03;;
10719;SDS011;5411;58.386;15.560;2024-01-10T06:56:57;11.03;;;5.90;;
10719;SDS011;5411;58.386;15.560;2024-01-10T06:59:27;9.10;;;5.63;;
10719;SDS011;5411;58.386;15.560;2024-01-10T07:01:55;8.97;;;6.03;;
10719;SDS011;5411;58.386;15.560;2024-01-10T07:04:24;8.67;;;5.40;;
10719;SDS011;5411;58.386;15.560;2024-01-10T07:06:54;9.27;;;6.30;;
10719;SDS011;5411;58.386;15.560;2024-01-10T07:09:23;9.07;;;5.77;;
10719;SDS011;5411;58.386;15.560;2024-01-10T07:11:51;8.20;;;5.57;;
10719;SDS011;5411;58.386;15.560;2024-01-10T07:14:20;11.00;;;6.40;;
10719;SDS011;5411;58.386;15.560;2024-01-10T07:16:50;9.27;;;6.73;;
10719;SDS011;5411;58.386;15.560;2024-01-10T07:19:18;9.87;;;5.30;;
10719;SDS011;5411;58.386;15.560;2024-01-10T07:21:47;10.03;;;6.43;;
10719;SDS011;5411;58.386;15.560;2024-01-10T07:24:15;7.47;;;5.40;;
10719;SDS011;5411;58.386;15.560;2024-01-10T07:26:44;12.17;;;6.80;;
10719;SDS011;5411;58.386;15.560;2024-01-10T07:29:12;8.47;;;5.93;;
10719;SDS011;5411;58.386;15.560;2024-01-10T07:31:40;10.67;;;6.00;;
10719;SDS011;5411;58.386;15.560;2024-01-10T07:34:11;8.67;;;6.10;;
10719;SDS011;5411;58.386;15.560;2024-01-10T07:36:42;10.57;;;6.40;;
10719;SDS011;5411;58.386;15.560;2024-01-10T07:39:11;11.17;;;6.03;;
10719;SDS011;5411;58.386;15.560;2024-01-10T07:41:42;10.23;;;6.17;;
10719;SDS011;5411;58.386;15.560;2024-01-10T07:44:10;10.17;;;6.47;;
10719;SDS011;5411;58.386;15.560;2024-01-10T07:46:43;10.50;;;6.07;;
10719;SDS011;5411;58.386;15.560;2024-01-10T07:49:14;8.80;;;5.80;;
10719;SDS011;5411;58.386;15.560;2024-01-10T07:51:43;10.40;;;6.53;;
10719;SDS011;5411;58.386;15.560;2024-01-10T07:54:12;13.00;;;6.67;;
10719;SDS011;5411;58.386;15.560;2024-01-10T07:56:40;7.40;;;5.50;;
10719;SDS011;5411;58.386;15.560;2024-01-10T07:59:09;14.03;;;6.40;;
10719;SDS011;5411;58.386;15.560;2024-01-10T08:01:43;8.10;;;5.73;;
10719;SDS011;5411;58.386;15.560;2024-01-10T08:04:24;9.33;;;5.87;;
10719;SDS011;5411;58.386;15.560;2024-01-10T08:06:53;8.47;;;6.03;;
10719;SDS011;5411;58.386;15.560;2024-01-10T08:09:22;10.17;;;5.83;;
10719;SDS011;5411;58.386;15.560;2024-01-10T08:11:51;9.57;;;6.40;;
10719;SDS011;5411;58.386;15.560;2024-01-10T08:14:19;7.83;;;5.67;;
10719;SDS011;5411;58.386;15.560;2024-01-10T08:16:47;10.37;;;6.57;;
10719;SDS011;5411;58.386;15.560;2024-01-10T08:19:17;8.33;;;5.67;;
10719;SDS011;5411;58.386;15.560;2024-01-10T08:21:47;9.63;;;6.57;;
10719;SDS011;5411;58.386;15.560;2024-01-10T08:24:16;10.03;;;6.17;;
10719;SDS011;5411;58.386;15.560;2024-01-10T08:26:46;12.30;;;7.50;;
10719;SDS011;5411;58.386;15.560;2024-01-10T08:29:16;9.77;;;6.00;;
10719;SDS011;5411;58.386;15.560;2024-01-10T08:31:44;12.03;;;6.80;;
10719;SDS011;5411;58.386;15.560;2024-01-10T08:34:17;9.80;;;6.33;;
10719;SDS011;5411;58.386;15.560;2024-01-10T08:36:46;12.33;;;6.83;;
10719;SDS011;5411;58.386;15.560;2024-01-10T08:39:17;10.47;;;6.27;;
10719;SDS011;5411;58.386;15.560;2024-01-10T08:41:45;12.23;;;6.80;;
10719;SDS011;5411;58.386;15.560;2024-01-10T08:44:14;8.80;;;6.20;;
10719;SDS011;5411;58.386;15.560;2024-01-10T08:46:43;10.73;;;6.37;;
10719;SDS011;5411;58.386;15.560;2024-01-10T08:49:11;7.93;;;5.93;;
10719;SDS011;5411;58.386;15.560;2024-01-10T08:51:40;10.40;;;6.47;;
10719;SDS011;5411;58.386;15.560;2024-01-10T08:54:11;8.60;;;6.40;;
10719;SDS011;5411;58.386;15.560;2024-01-10T08:56:43;11.00;;;6.50;;
10719;SDS011;5411;58.386;15.560;2024-01-10T08:59:12;8.97;;;6.60;;
10719;SDS011;5411;58.386;15.560;2024-01-10T09:01:41;9.07;;;5.97;;
10719;SDS011;5411;58.386;15.560;2024-01-10T09:04:13;8.63;;;5.87;;
10719;SDS011;5411;58.386;15.560;2024-01-10T09:06:41;9.37;;;6.30;;
10719;SDS011;5411;58.386;15.560;2024-01-10T09:09:12;9.03;;;6.00;;
10719;SDS011;5411;58.386;15.560;2024-01-10T09:11:41;8.17;;;6.33;;
10719;SDS011;5411;58.386;15.560;2024-01-10T09:14:11;11.00;;;6.70;;
10719;SDS011;5411;58.386;15.560;2024-01-10T09:16:40;8.53;;;6.10;;
10719;SDS011;5411;58.386;15.560;2024-01-10T09:19:09;11.60;;;6.83;;
10719;SDS011;5411;58.386;15.560;2024-01-10T09:21:38;9.87;;;6.23;;
10719;SDS011;5411;58.386;15.560;2024-01-10T09:24:07;10.57;;;6.57;;
10719;SDS011;5411;58.386;15.560;2024-01-10T09:26:56;9.73;;;6.07;;
10719;SDS011;5411;58.386;15.560;2024-01-10T09:29:24;9.37;;;5.83;;
10719;SDS011;5411;58.386;15.560;2024-01-10T09:31:53;9.30;;;6.27;;
10719;SDS011;5411;58.386;15.560;2024-01-10T09:34:23;8.83;;;6.23;;
10719;SDS011;5411;58.386;15.560;2024-01-10T09:36:51;10.30;;;7.23;;
10719;SDS011;5411;58.386;15.560;2024-01-10T09:39:20;8.70;;;5.80;;
10719;SDS011;5411;58.386;15.560;2024-01-10T09:41:50;7.30;;;6.60;;
10719;SDS011;5411;58.386;15.560;2024-01-10T09:44:20;8.63;;;5.73;;
10719;SDS011;5411;58.386;15.560;2024-01-10T09:46:50;11.23;;;6.80;;
10719;SDS011;5411;58.386;15.560;2024-01-10T09:49:20;8.43;;;6.53;;
10719;SDS011;5411;58.386;15.560;2024-01-10T09:51:53;11.10;;;6.97;;
10719;SDS011;5411;58.386;15.560;2024-01-10T09:54:26;8.30;;;6.40;;
10719;SDS011;5411;58.386;15.560;2024-01-10T09:56:58;8.70;;;6.33;;
10719;SDS011;5411;58.386;15.560;2024-01-10T09:59:28;9.13;;;6.60;;
10719;SDS011;5411;58.386;15.560;2024-01-10T10:01:59;9.20;;;6.33;;
10719;SDS011;5411;58.386;15.560;2024-01-10T10:04:31;9.20;;;6.20;;
10719;SDS011;5411;58.386;15.560;2024-01-10T10:07:02;10.47;;;7.20;;
10719;SDS011;5411;58.386;15.560;2024-01-10T10:09:31;7.53;;;5.90;;
10719;SDS011;5411;58.386;15.560;2024-01-10T10:12:00;8.53;;;5.83;;
10719;SDS011;5411;58.386;15.560;2024-01-10T10:14:30;9.27;;;5.73;;
10719;SDS011;5411;58.386;15.560;2024-01-10T10:17:13;7.23;;;5.57;;
10719;SDS011;5411;58.386;15.560;2024-01-10T10:19:43;7.93;;;6.20;;
10719;SDS011;5411;58.386;15.560;2024-01-10T10:22:12;7.17;;;5.30;;
10719;SDS011;5411;58.386;15.560;2024-01-10T10:24:41;7.83;;;5.87;;
10719;SDS011;5411;58.386;15.560;2024-01-10T10:27:11;7.67;;;5.17;;
10719;SDS011;5411;58.386;15.560;2024-01-10T10:29:43;6.23;;;5.00;;
10719;SDS011;5411;58.386;15.560;2024-01-10T10:32:14;6.70;;;5.50;;
10719;SDS011;5411;58.386;15.560;2024-01-10T10:34:45;7.43;;;5.20;;
10719;SDS011;5411;58.386;15.560;2024-01-10T10:37:13;8.27;;;5.40;;
10719;SDS011;5411;58.386;15.560;2024-01-10T10:39:42;6.83;;;5.37;;
10719;SDS011;5411;58.386;15.560;2024-01-10T10:42:11;6.53;;;4.67;;
10719;SDS011;5411;58.386;15.560;2024-01-10T10:44:43;9.03;;;5.63;;
10719;SDS011;5411;58.386;15.560;2024-01-10T10:47:13;8.60;;;5.03;;
10719;SDS011;5411;58.386;15.560;2024-01-10T10:49:47;7.27;;;4.80;;
10719;SDS011;5411;58.386;15.560;2024-01-10T10:52:21;8.20;;;4.37;;
10719;SDS011;5411;58.386;15.560;2024-01-10T10:54:50;5.20;;;4.43;;
10719;SDS011;5411;58.386;15.560;2024-01-10T10:57:21;5.63;;;4.57;;
10719;SDS011;5411;58.386;15.560;2024-01-10T10:59:54;6.20;;;5.03;;
10719;SDS011;5411;58.386;15.560;2024-01-10T11:02:25;7.30;;;5.07;;
10719;SDS011;5411;58.386;15.560;2024-01-10T11:04:57;7.77;;;5.10;;
10719;SDS011;5411;58.386;15.560;2024-01-10T11:07:27;7.57;;;5.27;;
10719;SDS011;5411;58.386;15.560;2024-01-10T11:09:56;6.17;;;4.83;;
10719;SDS011;5411;58.386;15.560;2024-01-10T11:12:31;6.30;;;3.53;;
10719;SDS011;5411;58.386;15.560;2024-01-10T11:15:24;8.13;;;4.60;;
10719;SDS011;5411;58.386;15.560;2024-01-10T11:18:28;5.70;;;4.53;;
10719;SDS011;5411;58.386;15.560;2024-01-10T11:21:15;6.37;;;5.23;;
10719;SDS011;5411;58.386;15.560;2024-01-10T11:23:52;6.37;;;4.67;;
10719;SDS011;5411;58.386;15.560;2024-01-10T11:26:24;5.43;;;3.60;;
10719;SDS011;5411;58.386;15.560;2024-01-10T11:28:53;4.70;;;4.10;;
10719;SDS011;5411;58.386;15.560;2024-01-10T11:31:28;6.20;;;3.77;;
10719;SDS011;5411;58.386;15.560;2024-01-10T11:33:58;6.43;;;4.47;;
10719;SDS011;5411;58.386;15.560;2024-01-10T11:36:29;5.30;;;4.17;;
10719;SDS011;5411;58.386;15.560;2024-01-10T11:38:58;6.30;;;4.10;;
10719;SDS011;5411;58.386;15.560;2024-01-10T11:41:30;7.07;;;4.40;;
10719;SDS011;5411;58.386;15.560;2024-01-10T11:46:58;5.73;;;4.10;;
10719;SDS011;5411;58.386;15.560;2024-01-10T11:49:27;5.57;;;4.07;;
10719;SDS011;5411;58.386;15.560;2024-01-10T11:51:56;6.67;;;4.73;;
10719;SDS011;5411;58.386;15.560;2024-01-10T11:57:18;5.20;;;3.90;;
10719;SDS011;5411;58.386;15.560;2024-01-10T11:59:50;6.87;;;4.60;;
10719;SDS011;5411;58.386;15.560;2024-01-10T12:02:21;5.33;;;3.97;;
10719;SDS011;5411;58.386;15.560;2024-01-10T12:04:52;7.57;;;4.83;;
10719;SDS011;5411;58.386;15.560;2024-01-10T12:07:21;4.80;;;3.80;;
10719;SDS011;5411;58.386;15.560;2024-01-10T12:09:51;5.83;;;4.53;;
10719;SDS011;5411;58.386;15.560;2024-01-10T12:12:21;6.17;;;4.40;;
10719;SDS011;5411;58.386;15.560;2024-01-10T12:14:50;4.97;;;4.47;;
10719;SDS011;5411;58.386;15.560;2024-01-10T12:17:18;6.17;;;3.97;;
10719;SDS011;5411;58.386;15.560;2024-01-10T12:19:48;6.93;;;5.23;;
10719;SDS011;5411;58.386;15.560;2024-01-10T12:22:17;5.60;;;3.70;;
10719;SDS011;5411;58.386;15.560;2024-01-10T12:24:47;4.60;;;4.10;;
10719;SDS011;5411;58.386;15.560;2024-01-10T12:27:18;6.87;;;4.37;;
10719;SDS011;5411;58.386;15.560;2024-01-10T12:29:49;5.90;;;5.00;;
10719;SDS011;5411;58.386;15.560;2024-01-10T12:32:21;6.37;;;4.17;;
10719;SDS011;5411;58.386;15.560;2024-01-10T12:34:59;6.83;;;4.33;;
10719;SDS011;5411;58.386;15.560;2024-01-10T12:37:28;5.03;;;4.23;;
10719;SDS011;5411;58.386;15.560;2024-01-10T12:39:57;4.90;;;4.10;;
10719;SDS011;5411;58.386;15.560;2024-01-10T12:42:26;6.07;;;4.00;;
10719;SDS011;5411;58.386;15.560;2024-01-10T12:44:54;4.97;;;4.30;;
10719;SDS011;5411;58.386;15.560;2024-01-10T12:47:28;5.03;;;3.50;;
10719;SDS011;5411;58.386;15.560;2024-01-10T12:49:57;4.90;;;3.87;;
10719;SDS011;5411;58.386;15.560;2024-01-10T12:52:25;5.97;;;4.13;;
10719;SDS011;5411;58.386;15.560;2024-01-10T12:54:54;5.17;;;4.00;;
10719;SDS011;5411;58.386;15.560;2024-01-10T12:57:23;4.43;;;3.23;;
10719;SDS011;5411;58.386;15.560;2024-01-10T12:59:51;5.20;;;4.10;;
10719;SDS011;5411;58.386;15.560;2024-01-10T13:02:20;6.47;;;4.30;;
10719;SDS011;5411;58.386;15.560;2024-01-10T13:04:50;5.60;;;4.10;;
10719;SDS011;5411;58.386;15.560;2024-01-10T13:07:19;5.57;;;3.60;;
10719;SDS011;5411;58.386;15.560;2024-01-10T13:09:47;4.90;;;3.93;;
10719;SDS011;5411;58.386;15.560;2024-01-10T13:12:16;4.33;;;3.47;;
10719;SDS011;5411;58.386;15.560;2024-01-10T13:14:44;5.00;;;4.07;;
10719;SDS011;5411;58.386;15.560;2024-01-10T13:17:13;3.40;;;3.10;;
10719;SDS011;5411;58.386;15.560;2024-01-10T13:19:41;4.97;;;4.30;;
10719;SDS011;5411;58.386;15.560;2024-01-10T13:22:16;5.23;;;3.70;;
10719;SDS011;5411;58.386;15.560;2024-01-10T13:24:46;5.93;;;3.77;;
10719;SDS011;5411;58.386;15.560;2024-01-10T13:27:15;5.47;;;3.57;;
10719;SDS011;5411;58.386;15.560;2024-01-10T13:29:47;5.37;;;4.30;;
10719;SDS011;5411;58.386;15.560;2024-01-10T13:32:16;4.67;;;3.00;;
10719;SDS011;5411;58.386;15.560;2024-01-10T13:34:44;7.33;;;4.23;;
10719;SDS011;5411;58.386;15.560;2024-01-10T13:37:12;4.97;;;3.57;;
10719;SDS011;5411;58.386;15.560;2024-01-10T13:39:42;5.13;;;4.30;;
10719;SDS011;5411;58.386;15.560;2024-01-10T13:42:11;4.37;;;3.27;;
10719;SDS011;5411;58.386;15.560;2024-01-10T13:44:40;4.97;;;3.43;;
10719;SDS011;5411;58.386;15.560;2024-01-10T13:47:08;3.80;;;3.40;;
10719;SDS011;5411;58.386;15.560;2024-01-10T13:49:37;3.90;;;3.50;;
10719;SDS011;5411;58.386;15.560;2024-01-10T13:52:07;4.07;;;3.60;;
10719;SDS011;5411;58.386;15.560;2024-01-10T13:54:36;5.67;;;3.37;;
10719;SDS011;5411;58.386;15.560;2024-01-10T13:57:06;4.93;;;2.93;;
10719;SDS011;5411;58.386;15.560;2024-01-10T13:59:34;4.60;;;3.67;;
10719;SDS011;5411;58.386;15.560;2024-01-10T14:02:03;5.10;;;3.40;;
10719;SDS011;5411;58.386;15.560;2024-01-10T14:04:32;4.03;;;3.00;;
10719;SDS011;5411;58.386;15.560;2024-01-10T14:07:01;5.57;;;3.47;;
10719;SDS011;5411;58.386;15.560;2024-01-10T14:09:30;4.80;;;3.30;;
10719;SDS011;5411;58.386;15.560;2024-01-10T14:11:59;5.17;;;3.90;;
10719;SDS011;5411;58.386;15.560;2024-01-10T14:14:29;4.10;;;3.13;;
10719;SDS011;5411;58.386;15.560;2024-01-10T14:16:58;6.90;;;3.77;;
10719;SDS011;5411;58.386;15.560;2024-01-10T14:19:27;4.30;;;3.20;;
10719;SDS011;5411;58.386;15.560;2024-01-10T14:21:55;4.77;;;3.70;;
10719;SDS011;5411;58.386;15.560;2024-01-10T14:24:24;3.97;;;3.53;;
10719;SDS011;5411;58.386;15.560;2024-01-10T14:26:53;5.93;;;3.07;;
10719;SDS011;5411;58.386;15.560;2024-01-10T14:29:22;5.03;;;3.80;;
10719;SDS011;5411;58.386;15.560;2024-01-10T14:31:53;4.30;;;3.17;;
10719;SDS011;5411;58.386;15.560;2024-01-10T14:34:42;4.30;;;3.90;;
10719;SDS011;5411;58.386;15.560;2024-01-10T14:37:12;4.60;;;3.00;;
10719;SDS011;5411;58.386;15.560;2024-01-10T14:39:40;5.90;;;3.73;;
10719;SDS011;5411;58.386;15.560;2024-01-10T14:42:09;4.37;;;2.87;;
10719;SDS011;5411;58.386;15.560;2024-01-10T14:44:38;5.43;;;3.47;;
10719;SDS011;5411;58.386;15.560;2024-01-10T14:47:08;3.23;;;2.93;;
10719;SDS011;5411;58.386;15.560;2024-01-10T14:49:38;5.27;;;3.37;;
10719;SDS011;5411;58.386;15.560;2024-01-10T14:52:07;4.47;;;2.90;;
10719;SDS011;5411;58.386;15.560;2024-01-10T14:54:35;4.50;;;3.40;;
10719;SDS011;5411;58.386;15.560;2024-01-10T14:57:04;4.13;;;3.10;;
10719;SDS011;5411;58.386;15.560;2024-01-10T14:59:32;4.03;;;3.53;;
10719;SDS011;5411;58.386;15.560;2024-01-10T15:02:14;8.13;;;3.80;;
10719;SDS011;5411;58.386;15.560;2024-01-10T15:04:43;4.40;;;4.00;;
10719;SDS011;5411;58.386;15.560;2024-01-10T15:07:12;4.37;;;3.53;;